New Orleans, Louisiana
Traffic Map
Current Weather Conditions
New Orleans, Louisiana
Clear
Clear
79°
Feels Like: 82°
Wind Chill: 79° Ceiling: Unl
Heat Index: 82° Visibility: 10mi
Dew Point: 71° Wind: 14mph
Humidity: 77% Direction: 30° (NNE)
Pressure: 29.76in Gusts: 0mph
Raw Report DataKNEW 280853Z AUTO 03012KT 10SM CLR 26/22 A2976 RMK AO2 SLP069 T02610217 55008 $
Traffic Incident Summary
Active as of:
Severity:
Category:
InformationThere was an issue retrieving the traffic information for this location. Please try a different location or try again shortly.
Advertisements